Time;durP1;ratioP1;P1;durP2;ratioP2;P2;SDS_P1;SDS_P2;PMS_P1;PMS_P2;Temp;Humidity;BMP_temperature;BMP_pressure;BME280_temperature;BME280_humidity;BME280_pressure;Samples;Min_cycle;Max_cycle;Signal;HPM_P1;HPM_P2
2022/04/04 00:00:47;;;;;;;14.60;7.50;;;;;0.30;97527.80;;;;110768;1251;41133;-68
2022/04/04 00:03:16;;;;;;;13.50;6.10;;;;;0.30;97528.80;;;;110617;1254;41179;-68
2022/04/04 00:05:48;;;;;;;12.20;6.50;;;;;0.30;97532.60;;;;110755;1251;41357;-68
2022/04/04 00:08:17;;;;;;;13.80;7.20;;;;;0.30;97533.40;;;;110720;1253;41272;-69
2022/04/04 00:10:47;;;;;;;11.70;6.00;;;;;0.30;97533.40;;;;110743;1254;41596;-69
2022/04/04 00:13:16;;;;;;;12.10;5.70;;;;;0.30;97532.40;;;;110706;1252;41267;-69
2022/04/04 00:15:47;;;;;;;12.60;6.50;;;;;0.30;97537.80;;;;110843;1251;41727;-69
2022/04/04 00:18:17;;;;;;;13.50;7.00;;;;;0.30;97542.40;;;;110781;1251;41273;-68
2022/04/04 00:20:49;;;;;;;12.30;6.40;;;;;0.30;97543.00;;;;110750;1251;41684;-68
2022/04/04 00:23:20;;;;;;;12.30;6.60;;;;;0.30;97547.80;;;;110669;1252;42399;-68
2022/04/04 00:25:50;;;;;;;13.00;6.50;;;;;0.30;97547.00;;;;110665;1251;41380;-68
2022/04/04 00:28:20;;;;;;;12.80;7.00;;;;;0.30;97546.60;;;;110611;1254;42001;-68
2022/04/04 00:30:50;;;;;;;12.90;6.40;;;;;0.30;97556.60;;;;110643;1253;41166;-69
2022/04/04 00:33:20;;;;;;;11.10;5.80;;;;;0.30;97550.80;;;;110739;1253;41282;-68
2022/04/04 00:35:50;;;;;;;13.00;6.40;;;;;0.30;97549.00;;;;110767;1251;41157;-67
2022/04/04 00:38:22;;;;;;;;;;;;;0.30;97549.60;;;;110710;1251;41162;-67
2022/04/04 00:40:52;;;;;;;16.90;7.50;;;;;0.30;97553.40;;;;110760;1251;41326;-68
2022/04/04 00:43:21;;;;;;;14.70;7.40;;;;;0.30;97555.80;;;;110830;1251;41189;-68
2022/04/04 00:45:51;;;;;;;17.00;8.20;;;;;0.30;97565.20;;;;110777;1251;41091;-68
2022/04/04 00:48:21;;;;;;;14.70;7.00;;;;;0.40;97565.20;;;;110715;1252;41730;-68
2022/04/04 00:50:51;;;;;;;14.20;6.90;;;;;0.40;97569.80;;;;110771;1249;41175;-66
2022/04/04 00:53:22;;;;;;;13.50;7.10;;;;;0.40;97576.00;;;;110707;1251;41658;-67
2022/04/04 00:55:53;;;;;;;13.50;6.60;;;;;0.40;97574.80;;;;110504;1254;41767;-68
2022/04/04 00:58:24;;;;;;;15.20;7.50;;;;;0.40;97576.60;;;;110599;1252;41164;-68
2022/04/04 01:00:55;;;;;;;14.70;7.50;;;;;0.40;97578.80;;;;110782;1251;41394;-68
2022/04/04 01:03:25;;;;;;;13.00;6.80;;;;;0.40;97579.80;;;;110721;1251;41176;-67
2022/04/04 01:05:57;;;;;;;13.60;6.70;;;;;0.40;97573.80;;;;110726;1251;41131;-68
2022/04/04 01:08:27;;;;;;;13.80;6.40;;;;;0.48;97572.80;;;;110722;1251;41160;-67
2022/04/04 01:10:57;;;;;;;12.30;5.60;;;;;0.50;97577.60;;;;110763;1251;41910;-67
2022/04/04 01:13:28;;;;;;;12.00;5.20;;;;;0.50;97577.00;;;;110699;1252;41306;-67
2022/04/04 01:15:57;;;;;;;9.50;4.80;;;;;0.50;97565.60;;;;110698;1251;41972;-68
2022/04/04 01:18:27;;;;;;;11.10;5.00;;;;;0.58;97565.40;;;;110573;1254;41256;-67
2022/04/04 01:20:58;;;;;;;11.60;5.10;;;;;0.60;97564.20;;;;110714;1253;42384;-67
2022/04/04 01:23:34;;;;;;;12.70;5.80;;;;;0.60;97562.40;;;;110719;1251;41218;-68
2022/04/04 01:26:05;;;;;;;11.10;5.10;;;;;0.60;97567.40;;;;110653;1253;41131;-68
2022/04/04 01:28:36;;;;;;;;;;;;;0.60;97570.00;;;;110704;1251;41270;-67
2022/04/04 01:31:07;;;;;;;11.60;5.50;;;;;0.60;97566.20;;;;110934;1250;41338;-67
2022/04/04 01:33:37;;;;;;;9.70;4.60;;;;;0.60;97569.40;;;;110670;1253;41149;-67
2022/04/04 01:36:08;;;;;;;10.60;4.90;;;;;0.60;97564.40;;;;110744;1251;41611;-67
2022/04/04 01:38:38;;;;;;;9.10;4.40;;;;;0.60;97567.00;;;;110705;1252;42635;-67
2022/04/04 01:41:07;;;;;;;9.40;4.10;;;;;0.64;97566.00;;;;110742;1251;41321;-67
2022/04/04 01:43:37;;;;;;;10.80;4.90;;;;;0.68;97565.20;;;;110762;1251;41556;-67
2022/04/04 01:46:24;;;;;;;11.50;5.40;;;;;0.70;97565.00;;;;110698;1251;41184;-68
2022/04/04 01:48:56;;;;;;;8.90;4.40;;;;;0.70;97570.40;;;;110811;1251;42389;-69
2022/04/04 01:51:27;;;;;;;9.60;4.60;;;;;0.64;97566.80;;;;110894;1251;41144;-68
2022/04/04 01:53:58;;;;;;;11.70;5.40;;;;;0.60;97562.00;;;;110590;1253;41163;-68
2022/04/04 01:56:29;;;;;;;9.60;4.20;;;;;0.60;97564.80;;;;110638;1251;42228;-68
2022/04/04 01:58:59;;;;;;;10.10;4.50;;;;;0.60;97564.00;;;;110716;1252;41308;-68
2022/04/04 02:01:32;;;;;;;9.10;4.80;;;;;0.60;97568.80;;;;110703;1251;41160;-67
2022/04/04 02:04:03;;;;;;;9.00;4.90;;;;;0.60;97574.20;;;;110875;1252;41766;-67
2022/04/04 02:06:33;;;;;;;11.60;5.90;;;;;0.60;97573.00;;;;110709;1253;41641;-67
2022/04/04 02:09:03;;;;;;;13.00;6.00;;;;;0.50;97576.80;;;;110678;1252;41615;-67
2022/04/04 02:11:34;;;;;;;12.70;5.90;;;;;0.44;97577.60;;;;110573;1254;41170;-68
2022/04/04 02:14:04;;;;;;;;;;;;;0.40;97583.40;;;;110771;1251;41264;-67
2022/04/04 02:16:34;;;;;;;12.50;6.90;;;;;0.38;97587.80;;;;110671;1253;41606;-68
2022/04/04 02:19:03;;;;;;;10.70;5.70;;;;;0.30;97591.00;;;;110633;1251;41328;-68
2022/04/04 02:21:33;;;;;;;12.40;5.20;;;;;0.32;97584.20;;;;110868;1251;41722;-67
2022/04/04 02:24:04;;;;;;;11.50;5.10;;;;;0.32;97583.60;;;;110700;1252;41868;-67
2022/04/04 02:26:33;;;;;;;;;;;;;0.38;97580.80;;;;110901;1251;41167;-67
2022/04/04 02:29:04;;;;;;;9.50;4.50;;;;;0.38;97585.40;;;;110744;1251;41144;-67
2022/04/04 02:31:34;;;;;;;8.50;4.20;;;;;0.40;97589.60;;;;110701;1252;41139;-68
2022/04/04 02:34:03;;;;;;;11.20;4.90;;;;;0.40;97580.00;;;;110687;1253;41267;-67
2022/04/04 02:36:33;;;;;;;10.70;4.60;;;;;0.48;97586.00;;;;110632;1254;41726;-67
2022/04/04 02:39:02;;;;;;;10.50;4.90;;;;;0.50;97593.00;;;;110612;1254;41299;-67
2022/04/04 02:41:32;;;;;;;12.70;5.70;;;;;0.50;97586.60;;;;110786;1252;41149;-67
2022/04/04 02:44:02;;;;;;;13.30;6.70;;;;;0.52;97586.60;;;;110719;1251;41202;-67
2022/04/04 02:46:34;;;;;;;10.40;4.90;;;;;0.56;97581.60;;;;110786;1251;43017;-68
2022/04/04 02:49:05;;;;;;;9.50;5.00;;;;;0.58;97584.60;;;;110912;1251;41220;-65
2022/04/04 02:51:34;;;;;;;11.70;5.40;;;;;0.60;97587.00;;;;110939;1251;41569;-67
2022/04/04 02:54:04;;;;;;;10.90;4.80;;;;;0.60;97593.40;;;;110857;1250;41153;-68
2022/04/04 02:56:36;;;;;;;9.70;4.80;;;;;0.64;97588.20;;;;110765;1251;41256;-66
2022/04/04 02:59:06;;;;;;;11.70;5.40;;;;;0.70;97590.40;;;;110758;1251;41173;-68
2022/04/04 03:01:36;;;;;;;9.70;4.90;;;;;0.70;97590.20;;;;110666;1251;42405;-67
2022/04/04 03:04:07;;;;;;;9.70;4.40;;;;;0.70;97586.40;;;;110742;1253;41145;-68
2022/04/04 03:06:37;;;;;;;9.90;4.60;;;;;0.70;97586.80;;;;110677;1252;41322;-68
2022/04/04 03:09:07;;;;;;;10.10;5.00;;;;;0.76;97586.00;;;;110600;1254;41611;-68
2022/04/04 03:11:38;;;;;;;10.40;5.10;;;;;0.80;97592.00;;;;110667;1252;41161;-67
2022/04/04 03:14:08;;;;;;;10.00;4.20;;;;;0.80;97593.00;;;;110712;1252;41138;-67
2022/04/04 03:16:38;;;;;;;10.50;5.30;;;;;0.80;97596.20;;;;110772;1251;41275;-67
2022/04/04 03:19:07;;;;;;;12.50;5.80;;;;;0.80;97595.40;;;;110803;1251;41154;-68
2022/04/04 03:21:39;;;;;;;9.70;4.70;;;;;0.80;97593.40;;;;110641;1252;41204;-67
2022/04/04 03:24:12;;;;;;;11.70;5.40;;;;;0.90;97598.20;;;;110785;1249;41938;-67
2022/04/04 03:26:42;;;;;;;11.40;5.20;;;;;0.90;97601.00;;;;110690;1252;41280;-68
2022/04/04 03:29:11;;;;;;;9.80;5.00;;;;;0.90;97610.60;;;;110813;1251;43044;-67
2022/04/04 03:31:41;;;;;;;12.10;5.30;;;;;0.90;97605.20;;;;110718;1250;41494;-67
2022/04/04 03:34:10;;;;;;;10.70;4.80;;;;;0.90;97606.20;;;;110717;1251;42144;-68
2022/04/04 03:36:40;;;;;;;9.00;4.70;;;;;0.90;97607.60;;;;110686;1252;41146;-67
2022/04/04 03:39:13;;;;;;;11.80;5.10;;;;;0.90;97605.40;;;;110809;1250;41146;-68
2022/04/04 03:41:45;;;;;;;9.80;4.70;;;;;0.94;97611.60;;;;110702;1251;41193;-67
2022/04/04 03:44:14;;;;;;;10.40;4.80;;;;;0.94;97609.40;;;;110600;1253;41198;-68
2022/04/04 03:46:44;;;;;;;11.20;4.70;;;;;0.96;97617.40;;;;110340;1253;41200;-68
2022/04/04 03:49:13;;;;;;;9.60;4.50;;;;;0.98;97619.20;;;;110678;1251;41219;-68
2022/04/04 03:51:43;;;;;;;10.10;4.40;;;;;0.98;97616.20;;;;110789;1251;41321;-68
2022/04/04 03:54:12;;;;;;;9.20;4.30;;;;;0.98;97622.00;;;;110697;1252;41277;-68
2022/04/04 03:56:41;;;;;;;9.50;4.40;;;;;0.98;97617.60;;;;110624;1253;41271;-68
2022/04/04 03:59:11;;;;;;;12.30;5.40;;;;;1.00;97625.60;;;;110662;1252;41268;-67
2022/04/04 04:01:40;;;;;;;11.00;5.90;;;;;0.98;97625.40;;;;110660;1253;41155;-68
2022/04/04 04:04:10;;;;;;;13.20;6.10;;;;;0.96;97627.00;;;;110766;1251;41128;-67
2022/04/04 04:06:40;;;;;;;12.20;5.40;;;;;1.00;97633.20;;;;110887;1251;41362;-68
2022/04/04 04:09:09;;;;;;;12.00;6.00;;;;;1.00;97630.00;;;;110713;1252;41163;-67
2022/04/04 04:11:38;;;;;;;10.20;5.40;;;;;1.00;97630.40;;;;110757;1251;41249;-68
2022/04/04 04:14:07;;;;;;;15.80;5.70;;;;;1.00;97633.60;;;;110606;1254;41161;-68
2022/04/04 04:16:36;;;;;;;10.80;4.90;;;;;0.96;97636.60;;;;110775;1251;42436;-68
2022/04/04 04:20:19;;;;;;;11.50;4.40;;;;;1.00;97639.40;;;;110673;1254;41639;-68
2022/04/04 04:21:55;;;;;;;9.70;4.60;;;;;1.00;97646.40;;;;110907;1250;41269;-67
2022/04/04 04:24:26;;;;;;;10.20;4.70;;;;;1.00;97641.40;;;;110707;1252;41826;-68
2022/04/04 04:26:56;;;;;;;10.50;4.60;;;;;1.00;97644.00;;;;110830;1251;41725;-68
2022/04/04 04:29:25;;;;;;;11.40;5.40;;;;;1.00;97645.80;;;;110659;1252;41162;-68
2022/04/04 04:31:53;;;;;;;13.80;6.00;;;;;1.06;97642.40;;;;110819;1250;41140;-68
2022/04/04 04:34:23;;;;;;;25.10;11.80;;;;;1.08;97639.80;;;;110740;1251;41173;-69
2022/04/04 04:36:52;;;;;;;23.80;11.10;;;;;1.10;97634.80;;;;110769;1251;41156;-69
2022/04/04 04:39:21;;;;;;;24.00;11.40;;;;;1.08;97634.80;;;;110811;1250;41623;-68
2022/04/04 04:41:50;;;;;;;24.50;11.40;;;;;1.10;97630.80;;;;110717;1251;41697;-68
2022/04/04 04:44:19;;;;;;;21.70;11.20;;;;;1.10;97630.00;;;;110773;1251;41139;-69
2022/04/04 04:46:52;;;;;;;21.80;10.70;;;;;1.10;97631.60;;;;110796;1251;41180;-69
2022/04/04 04:49:22;;;;;;;19.40;9.50;;;;;1.20;97632.20;;;;110845;1250;41679;-69
2022/04/04 04:51:51;;;;;;;17.10;8.70;;;;;1.28;97633.00;;;;110772;1251;41590;-69
2022/04/04 04:54:20;;;;;;;16.20;7.70;;;;;1.30;97630.20;;;;110907;1251;40960;-68
2022/04/04 04:56:49;;;;;;;15.50;8.10;;;;;1.40;97630.40;;;;110760;1252;42388;-69
2022/04/04 04:59:18;;;;;;;13.40;6.80;;;;;1.50;97629.40;;;;110751;1252;41400;-70
2022/04/04 05:01:47;;;;;;;13.70;6.70;;;;;1.60;97630.40;;;;110781;1252;42056;-68
2022/04/04 05:04:16;;;;;;;13.30;6.50;;;;;1.70;97630.60;;;;110998;1249;41266;-67
2022/04/04 05:06:49;;;;;;;16.90;8.20;;;;;1.80;97634.40;;;;110760;1252;41173;-68
2022/04/04 05:09:18;;;;;;;18.10;9.20;;;;;1.90;97636.00;;;;110671;1251;41263;-69
2022/04/04 05:11:47;;;;;;;20.30;10.30;;;;;1.90;97632.40;;;;110930;1250;41197;-68
2022/04/04 05:14:16;;;;;;;18.50;9.50;;;;;2.00;97633.80;;;;110971;1251;41616;-68
2022/04/04 05:16:46;;;;;;;15.30;8.40;;;;;2.00;97633.40;;;;110926;1251;41130;-68
2022/04/04 05:19:19;;;;;;;15.10;7.80;;;;;2.10;97637.40;;;;110881;1250;41410;-68
2022/04/04 05:21:49;;;;;;;14.90;6.90;;;;;2.12;97633.40;;;;110804;1251;42137;-69
2022/04/04 05:24:18;;;;;;;12.40;6.60;;;;;2.20;97643.00;;;;110852;1250;41843;-67
2022/04/04 05:26:48;;;;;;;15.20;7.70;;;;;2.26;97639.80;;;;110510;1253;41723;-68
2022/04/04 05:29:17;;;;;;;13.40;6.90;;;;;2.30;97641.80;;;;110883;1251;41162;-67
2022/04/04 05:31:49;;;;;;;15.90;6.30;;;;;2.40;97643.80;;;;110826;1252;41158;-67
2022/04/04 05:34:18;;;;;;;13.40;7.00;;;;;2.44;97639.40;;;;110960;1248;41332;-67
2022/04/04 05:36:48;;;;;;;14.10;6.30;;;;;2.50;97640.00;;;;110802;1251;41700;-68
2022/04/04 05:39:17;;;;;;;12.30;6.20;;;;;2.56;97644.00;;;;110688;1252;41676;-67
2022/04/04 05:41:46;;;;;;;12.00;6.10;;;;;2.60;97647.80;;;;110972;1250;41155;-67
2022/04/04 05:44:17;;;;;;;14.10;6.80;;;;;2.60;97648.80;;;;110739;1251;41146;-69
2022/04/04 05:46:47;;;;;;;13.20;6.40;;;;;2.70;97644.80;;;;110877;1251;41148;-68
2022/04/04 05:49:18;;;;;;;12.40;6.60;;;;;2.70;97642.20;;;;110772;1251;41121;-69
2022/04/04 05:51:48;;;;;;;13.60;5.90;;;;;2.70;97642.20;;;;110760;1251;41264;-66
2022/04/04 05:54:32;;;;;;;12.00;5.70;;;;;2.80;97643.00;;;;110798;1250;41165;-68
2022/04/04 05:57:01;;;;;;;12.20;5.80;;;;;2.90;97636.20;;;;110831;1251;41322;-69
2022/04/04 05:59:32;;;;;;;10.90;5.70;;;;;2.98;97639.60;;;;110795;1250;41977;-67
2022/04/04 06:02:01;;;;;;;;;;;;;3.00;97639.40;;;;110840;1250;41144;-68
2022/04/04 06:04:31;;;;;;;11.50;5.00;;;;;3.02;97640.40;;;;110790;1250;41641;-69
2022/04/04 06:07:00;;;;;;;14.30;6.10;;;;;3.10;97639.80;;;;110774;1250;41217;-68
2022/04/04 06:09:29;;;;;;;14.40;6.40;;;;;3.10;97644.00;;;;110895;1250;41575;-68
2022/04/04 06:11:58;;;;;;;15.30;6.10;;;;;3.10;97645.00;;;;110849;1249;41511;-68
2022/04/04 06:14:28;;;;;;;13.60;6.70;;;;;3.00;97647.00;;;;110915;1250;41245;-67
2022/04/04 06:16:57;;;;;;;12.50;5.90;;;;;2.90;97642.80;;;;110833;1250;41147;-68
2022/04/04 06:19:28;;;;;;;13.70;6.50;;;;;2.98;97642.40;;;;110678;1252;41176;-68
2022/04/04 06:21:57;;;;;;;12.80;6.20;;;;;3.00;97644.00;;;;110699;1252;41500;-69
2022/04/04 06:24:27;;;;;;;13.90;6.60;;;;;3.04;97648.80;;;;110665;1252;41172;-67
2022/04/04 06:26:56;;;;;;;13.50;6.70;;;;;3.00;97645.60;;;;110400;1252;289496;-67
2022/04/04 06:29:26;;;;;;;14.70;7.00;;;;;3.20;97650.80;;;;110948;1249;41259;-67
2022/04/04 06:31:56;;;;;;;11.50;5.70;;;;;3.30;97656.20;;;;110706;1253;41658;-67
2022/04/04 06:34:25;;;;;;;11.50;5.80;;;;;3.40;97655.20;;;;110871;1250;41155;-66
2022/04/04 06:36:54;;;;;;;12.00;5.20;;;;;3.54;97650.20;;;;110776;1252;41869;-67
2022/04/04 06:39:23;;;;;;;10.60;4.70;;;;;3.74;97644.00;;;;110774;1249;41277;-66
2022/04/04 06:41:52;;;;;;;10.70;4.40;;;;;4.00;97637.80;;;;110916;1249;41418;-66
2022/04/04 06:44:22;;;;;;;12.40;5.30;;;;;4.34;97644.40;;;;110859;1251;41162;-68
2022/04/04 06:46:51;;;;;;;10.60;5.40;;;;;4.58;97635.20;;;;110693;1252;41422;-68
2022/04/04 06:49:20;;;;;;;11.50;5.50;;;;;4.70;97642.80;;;;110787;1251;41595;-67
2022/04/04 06:51:52;;;;;;;11.40;5.70;;;;;4.60;97647.00;;;;110682;1252;41164;-67
2022/04/04 06:54:21;;;;;;;10.90;5.40;;;;;4.70;97641.40;;;;110761;1251;41347;-67
2022/04/04 06:56:52;;;;;;;11.00;5.40;;;;;4.70;97645.40;;;;110699;1251;40958;-65
2022/04/04 06:59:22;;;;;;;14.20;5.40;;;;;4.80;97645.00;;;;110829;1251;41304;-68
2022/04/04 07:01:51;;;;;;;10.20;5.50;;;;;4.90;97644.20;;;;110749;1251;41150;-67
2022/04/04 07:04:20;;;;;;;9.70;4.90;;;;;4.90;97642.60;;;;110496;1253;41429;-68
2022/04/04 07:06:48;;;;;;;11.60;5.00;;;;;5.00;97636.40;;;;110726;1250;41606;-67
2022/04/04 07:09:17;;;;;;;11.90;5.30;;;;;5.04;97638.40;;;;110804;1251;41439;-68
2022/04/04 07:11:50;;;;;;;12.70;5.40;;;;;5.10;97646.40;;;;110685;1251;41200;-68
2022/04/04 07:14:19;;;;;;;11.60;5.60;;;;;5.10;97652.20;;;;110762;1251;42597;-69
2022/04/04 07:16:51;;;;;;;11.30;5.30;;;;;5.06;97656.40;;;;110789;1250;41155;-68
2022/04/04 07:19:22;;;;;;;10.10;4.90;;;;;5.00;97660.20;;;;110783;1250;42131;-67
2022/04/04 07:21:52;;;;;;;11.30;5.30;;;;;4.98;97656.20;;;;110841;1250;42338;-67
2022/04/04 07:24:21;;;;;;;12.10;4.80;;;;;5.00;97661.40;;;;110728;1251;41184;-67
2022/04/04 07:26:50;;;;;;;11.70;5.40;;;;;5.10;97665.20;;;;110617;1252;41069;-67
2022/04/04 07:29:19;;;;;;;12.10;5.80;;;;;5.10;97666.00;;;;110695;1253;41204;-67
2022/04/04 07:31:48;;;;;;;11.80;5.00;;;;;5.20;97672.40;;;;110784;1251;41153;-68
2022/04/04 07:34:17;;;;;;;11.10;5.30;;;;;5.20;97671.40;;;;110785;1251;41176;-67
2022/04/04 07:36:46;;;;;;;11.40;5.40;;;;;5.12;97669.60;;;;110686;1252;41153;-67
2022/04/04 07:39:18;;;;;;;12.40;5.60;;;;;5.10;97675.80;;;;110738;1250;41217;-68
2022/04/04 07:41:47;;;;;;;15.30;7.20;;;;;5.10;97676.20;;;;110710;1252;41269;-68
2022/04/04 07:44:16;;;;;;;12.00;6.00;;;;;4.90;97679.00;;;;110853;1251;41153;-67
2022/04/04 07:46:45;;;;;;;11.50;5.80;;;;;4.70;97687.20;;;;110927;1250;41612;-68
2022/04/04 07:49:14;;;;;;;10.70;6.20;;;;;4.60;97679.60;;;;110650;1252;41154;-67
2022/04/04 07:51:43;;;;;;;13.50;6.60;;;;;4.50;97683.60;;;;110677;1252;40755;-68
2022/04/04 07:54:13;;;;;;;11.00;5.30;;;;;4.50;97682.40;;;;110756;1249;41700;-68
2022/04/04 07:56:42;;;;;;;12.10;6.40;;;;;4.40;97686.40;;;;110700;1252;41909;-67
2022/04/04 07:59:11;;;;;;;14.00;6.80;;;;;4.40;97687.60;;;;110772;1251;41621;-67
2022/04/04 08:01:40;;;;;;;11.60;6.10;;;;;4.30;97686.00;;;;110724;1250;41263;-68
2022/04/04 08:04:10;;;;;;;12.20;6.30;;;;;4.36;97692.80;;;;110623;1252;41351;-67
2022/04/04 08:06:39;;;;;;;12.60;5.50;;;;;4.30;97690.40;;;;110636;1251;41163;-67
2022/04/04 08:09:08;;;;;;;11.80;5.30;;;;;4.30;97688.00;;;;110652;1252;41914;-68
2022/04/04 08:11:38;;;;;;;11.30;5.70;;;;;4.28;97688.80;;;;110707;1251;42032;-67
2022/04/04 08:14:09;;;;;;;12.60;6.00;;;;;4.20;97689.20;;;;110700;1251;41366;-67
2022/04/04 08:16:38;;;;;;;12.10;5.50;;;;;4.20;97690.00;;;;110696;1251;41489;-68
2022/04/04 08:19:07;;;;;;;11.80;5.70;;;;;4.20;97688.20;;;;110671;1253;41640;-67
2022/04/04 08:21:36;;;;;;;10.80;5.60;;;;;4.30;97680.80;;;;110820;1251;41832;-67
2022/04/04 08:24:06;;;;;;;13.10;6.00;;;;;4.46;97684.60;;;;110850;1251;41639;-67
2022/04/04 08:26:37;;;;;;;13.70;6.60;;;;;4.78;97670.00;;;;110715;1250;42117;-68
2022/04/04 08:29:08;;;;;;;13.40;6.40;;;;;5.26;97670.00;;;;110815;1251;41143;-67
2022/04/04 08:31:39;;;;;;;12.30;5.80;;;;;5.60;97664.40;;;;110850;1250;41159;-67
2022/04/04 08:34:08;;;;;;;13.10;6.40;;;;;5.90;97662.00;;;;110625;1252;41633;-67
2022/04/04 08:36:41;;;;;;;10.80;5.70;;;;;6.10;97664.20;;;;110816;1252;40914;-67
2022/04/04 08:39:10;;;;;;;14.90;5.90;;;;;6.20;97661.80;;;;110683;1252;41320;-67
2022/04/04 08:41:39;;;;;;;13.60;6.10;;;;;6.36;97657.00;;;;110851;1249;40907;-67
2022/04/04 08:44:08;;;;;;;10.40;5.50;;;;;6.50;97656.60;;;;110712;1250;41609;-67
2022/04/04 08:46:37;;;;;;;11.00;5.70;;;;;6.60;97653.60;;;;110677;1251;41167;-67
2022/04/04 08:49:06;;;;;;;11.70;6.70;;;;;6.66;97649.20;;;;110783;1252;41837;-67
2022/04/04 08:51:36;;;;;;;10.70;5.20;;;;;6.48;97646.80;;;;110659;1252;41160;-67
2022/04/04 08:54:05;;;;;;;12.00;6.30;;;;;6.56;97647.20;;;;110823;1251;41967;-68
2022/04/04 08:56:34;;;;;;;10.60;5.20;;;;;6.64;97644.20;;;;110858;1251;41277;-68
2022/04/04 08:59:03;;;;;;;11.70;6.00;;;;;6.80;97636.60;;;;110660;1252;41184;-66
2022/04/04 09:01:32;;;;;;;12.30;6.70;;;;;6.80;97633.40;;;;110766;1252;41060;-69
2022/04/04 09:04:01;;;;;;;11.00;6.30;;;;;6.60;97632.00;;;;110712;1252;41140;-68
2022/04/04 09:06:30;;;;;;;14.50;7.10;;;;;6.50;97635.00;;;;110805;1251;42167;-68
2022/04/04 09:08:59;;;;;;;11.50;6.40;;;;;6.60;97631.60;;;;110594;1252;41151;-69
2022/04/04 09:11:28;;;;;;;11.50;5.70;;;;;6.88;97629.60;;;;110611;1251;41731;-68
2022/04/04 09:14:06;;;;;;;15.50;6.00;;;;;7.00;97630.00;;;;110674;1252;41434;-67
2022/04/04 09:16:36;;;;;;;12.80;6.00;;;;;7.00;97624.20;;;;110885;1252;42386;-67
2022/04/04 09:19:06;;;;;;;12.40;6.20;;;;;7.00;97616.80;;;;110874;1250;41810;-67
2022/04/04 09:21:35;;;;;;;13.80;7.10;;;;;6.90;97613.60;;;;110882;1249;42089;-67
2022/04/04 09:24:09;;;;;;;16.70;7.20;;;;;6.46;97607.80;;;;110676;1250;41025;-67
2022/04/04 09:26:42;;;;;;;11.30;5.90;;;;;6.32;97595.60;;;;110851;1249;41157;-68
2022/04/04 09:29:17;;;;;;;14.70;6.90;;;;;6.42;97596.60;;;;110802;1252;41645;-69
2022/04/04 09:31:52;;;;;;;11.80;5.90;;;;;6.50;97594.00;;;;110740;1250;41222;-67
2022/04/04 09:34:21;;;;;;;9.70;5.00;;;;;6.40;97590.80;;;;110825;1251;41165;-68
2022/04/04 09:36:51;;;;;;;11.10;5.70;;;;;6.44;97588.00;;;;110767;1252;42277;-66
2022/04/04 09:39:20;;;;;;;11.60;6.20;;;;;6.50;97583.80;;;;110711;1251;41309;-69
2022/04/04 09:41:49;;;;;;;11.60;6.00;;;;;6.40;97581.80;;;;110864;1251;41152;-68
2022/04/04 09:44:25;;;;;;;12.30;6.00;;;;;6.08;97579.40;;;;110605;1250;41792;-68
2022/04/04 09:46:55;;;;;;;12.60;5.90;;;;;6.04;97578.20;;;;110921;1250;41299;-68
2022/04/04 09:49:24;;;;;;;10.80;5.20;;;;;6.08;97571.40;;;;110752;1251;41610;-67
2022/04/04 09:51:55;;;;;;;11.40;5.10;;;;;6.18;97566.40;;;;110634;1251;41638;-69
2022/04/04 09:54:28;;;;;;;11.80;6.00;;;;;6.30;97564.80;;;;110865;1251;41264;-68
2022/04/04 09:57:13;;;;;;;9.70;5.20;;;;;6.40;97559.60;;;;110750;1252;41154;-67
2022/04/04 09:59:42;;;;;;;10.50;5.20;;;;;6.50;97556.00;;;;110798;1250;41154;-67
2022/04/04 10:02:12;;;;;;;12.10;5.20;;;;;6.70;97555.60;;;;110520;1252;42541;-67
2022/04/04 10:04:44;;;;;;;10.60;5.40;;;;;6.96;97552.20;;;;110660;1251;41170;-68
2022/04/04 10:07:16;;;;;;;13.00;6.40;;;;;7.22;97552.20;;;;110706;1251;41222;-67
2022/04/04 10:09:50;;;;;;;13.30;6.20;;;;;7.54;97548.60;;;;110707;1252;42400;-67
2022/04/04 10:12:22;;;;;;;11.30;5.20;;;;;7.82;97538.40;;;;110713;1251;41236;-67
2022/04/04 10:14:55;;;;;;;10.70;5.30;;;;;8.38;97530.80;;;;110777;1252;41159;-71
2022/04/04 10:17:24;;;;;;;11.50;5.90;;;;;8.90;97527.80;;;;110792;1252;41374;-71
2022/04/04 10:19:53;;;;;;;13.10;6.30;;;;;8.98;97532.00;;;;110718;1251;41506;-69
2022/04/04 10:22:26;;;;;;;12.80;6.40;;;;;8.80;97524.00;;;;110743;1251;41136;-69
2022/04/04 10:24:57;;;;;;;11.10;5.70;;;;;8.60;97518.20;;;;110752;1251;41805;-69
2022/04/04 10:27:26;;;;;;;10.40;5.50;;;;;8.50;97513.60;;;;110694;1252;42113;-70
2022/04/04 10:30:08;;;;;;;11.10;5.50;;;;;8.50;97519.20;;;;110689;1250;41266;-70
2022/04/04 10:32:48;;;;;;;11.90;6.20;;;;;8.60;97521.40;;;;110899;1251;41264;-69
2022/04/04 10:35:22;;;;;;;11.40;5.60;;;;;8.50;97525.40;;;;110723;1250;41270;-69
2022/04/04 10:37:52;;;;;;;11.20;4.90;;;;;8.30;97519.80;;;;110669;1252;41684;-69
2022/04/04 10:40:24;;;;;;;12.80;5.00;;;;;8.36;97516.00;;;;110751;1249;41041;-69
2022/04/04 10:43:02;;;;;;;12.00;5.70;;;;;8.50;97512.40;;;;110762;1250;41816;-69
2022/04/04 10:45:31;;;;;;;10.80;4.60;;;;;8.72;97507.00;;;;110753;1252;41376;-70
2022/04/04 10:48:06;;;;;;;11.40;5.50;;;;;9.14;97493.60;;;;110807;1251;41786;-70
2022/04/04 10:50:43;;;;;;;11.20;5.90;;;;;9.78;97494.20;;;;110919;1251;41090;-70
2022/04/04 10:53:36;;;;;;;11.60;6.40;;;;;10.10;97491.20;;;;110851;1250;41265;-70
2022/04/04 10:56:31;;;;;;;10.60;5.00;;;;;10.10;97487.20;;;;110846;1249;41619;-66
2022/04/04 10:59:15;;;;;;;11.60;5.30;;;;;10.10;97485.00;;;;110884;1249;41270;-71
2022/04/04 11:01:53;;;;;;;11.10;5.30;;;;;10.20;97478.00;;;;110956;1249;42384;-72
2022/04/04 11:04:36;;;;;;;12.50;6.40;;;;;10.20;97469.00;;;;110612;1252;41191;-72
2022/04/04 11:09:57;;;;;;;10.40;4.80;;;;;9.80;97472.40;;;;110919;1250;41153;-71
2022/04/04 11:12:28;;;;;;;13.50;6.80;;;;;9.60;97474.40;;;;110715;1252;41495;-72
2022/04/04 11:15:07;;;;;;;12.50;6.10;;;;;9.20;97470.80;;;;110684;1252;41146;-71
2022/04/04 11:17:59;;;;;;;12.10;6.30;;;;;8.80;97474.60;;;;110949;1249;41185;-72
2022/04/04 11:20:33;;;;;;;12.80;5.80;;;;;8.50;97475.60;;;;110882;1252;41271;-72
2022/04/04 11:23:08;;;;;;;13.00;6.20;;;;;8.30;97482.00;;;;110813;1250;41263;-72
2022/04/04 11:25:48;;;;;;;11.50;6.10;;;;;8.20;97480.40;;;;110776;1249;41186;-71
2022/04/04 11:28:20;;;;;;;10.20;5.00;;;;;8.10;97476.60;;;;110873;1250;41143;-71
2022/04/04 11:30:54;;;;;;;10.20;5.00;;;;;8.00;97469.80;;;;110745;1251;41165;-71
2022/04/04 11:33:23;;;;;;;11.70;5.20;;;;;8.02;97466.40;;;;110662;1252;41484;-70
2022/04/04 11:35:52;;;;;;;10.20;4.70;;;;;8.10;97461.20;;;;110945;1249;41988;-71
2022/04/04 11:38:22;;;;;;;13.50;7.20;;;;;8.30;97453.00;;;;110728;1252;41173;-71
2022/04/04 11:40:55;;;;;;;12.00;6.40;;;;;8.34;97443.40;;;;110881;1251;41142;-71
2022/04/04 11:43:26;;;;;;;10.60;5.10;;;;;8.50;97442.80;;;;110898;1250;41150;-70
2022/04/04 11:45:55;;;;;;;11.70;5.10;;;;;8.80;97438.00;;;;110842;1251;41161;-70
2022/04/04 11:48:25;;;;;;;11.40;4.90;;;;;9.14;97435.40;;;;110684;1251;41264;-71
2022/04/04 11:50:58;;;;;;;10.50;5.10;;;;;9.40;97436.80;;;;110925;1249;41142;-71
2022/04/04 11:53:28;;;;;;;12.80;5.90;;;;;9.50;97425.20;;;;110699;1252;41161;-71
2022/04/04 11:56:02;;;;;;;16.70;7.00;;;;;9.50;97421.80;;;;110957;1249;41331;-71
2022/04/04 11:58:37;;;;;;;12.50;5.60;;;;;9.30;97419.00;;;;110802;1249;41299;-71
2022/04/04 12:01:06;;;;;;;13.20;6.50;;;;;9.00;97419.00;;;;110658;1252;42300;-71
2022/04/04 12:03:43;;;;;;;13.00;6.80;;;;;8.80;97416.80;;;;110848;1251;41266;-71
2022/04/04 12:06:14;;;;;;;11.70;5.70;;;;;8.60;97415.20;;;;110762;1250;41152;-71
2022/04/04 12:08:44;;;;;;;11.60;5.40;;;;;8.34;97404.80;;;;110727;1251;41601;-71
2022/04/04 12:11:13;;;;;;;15.70;6.60;;;;;8.32;97404.20;;;;110638;1252;41567;-70
2022/04/04 12:13:53;;;;;;;10.50;5.40;;;;;8.20;97394.40;;;;110678;1251;41162;-71
2022/04/04 12:16:27;;;;;;;11.00;4.70;;;;;8.20;97397.40;;;;110905;1251;41733;-71
2022/04/04 12:19:00;;;;;;;13.00;5.70;;;;;8.10;97390.20;;;;110674;1252;40862;-71
2022/04/04 12:21:30;;;;;;;10.90;5.20;;;;;8.34;97382.80;;;;110723;1251;41418;-71
2022/04/04 12:26:47;;;;;;;12.60;5.80;;;;;8.90;97379.00;;;;110838;1251;41833;-71
2022/04/04 12:29:18;;;;;;;11.50;5.70;;;;;8.86;97378.40;;;;110818;1251;41419;-71
2022/04/04 12:31:55;;;;;;;13.00;5.90;;;;;8.50;97374.00;;;;110851;1251;41440;-70
2022/04/04 12:34:24;;;;;;;10.90;5.10;;;;;8.26;97372.80;;;;110726;1251;41270;-71